sensor_id;sensor_type;location;lat;lon;timestamp;temperature;humidity
69747;DHT22;57018;50.278;19.134;2024-01-30T00:00:18;1.00;99.90
69747;DHT22;57018;50.278;19.134;2024-01-30T00:02:50;1.10;99.90
69747;DHT22;57018;50.278;19.134;2024-01-30T00:05:20;1.00;99.90
69747;DHT22;57018;50.278;19.134;2024-01-30T00:07:50;1.10;99.90
69747;DHT22;57018;50.278;19.134;2024-01-30T00:10:19;1.10;99.90
69747;DHT22;57018;50.278;19.134;2024-01-30T00:12:49;1.00;99.90
69747;DHT22;57018;50.278;19.134;2024-01-30T00:15:19;1.00;99.90
69747;DHT22;57018;50.278;19.134;2024-01-30T00:17:49;1.00;99.90
69747;DHT22;57018;50.278;19.134;2024-01-30T00:20:21;1.00;99.90
69747;DHT22;57018;50.278;19.134;2024-01-30T00:22:51;0.90;99.90
69747;DHT22;57018;50.278;19.134;2024-01-30T00:25:21;0.80;99.90
69747;DHT22;57018;50.278;19.134;2024-01-30T00:27:51;1.00;99.90
69747;DHT22;57018;50.278;19.134;2024-01-30T00:30:21;0.90;99.90
69747;DHT22;57018;50.278;19.134;2024-01-30T00:32:51;0.80;99.90
69747;DHT22;57018;50.278;19.134;2024-01-30T00:35:21;0.80;99.90
69747;DHT22;57018;50.278;19.134;2024-01-30T00:37:51;0.90;99.90
69747;DHT22;57018;50.278;19.134;2024-01-30T00:40:21;0.60;99.90
69747;DHT22;57018;50.278;19.134;2024-01-30T00:42:53;0.70;99.90
69747;DHT22;57018;50.278;19.134;2024-01-30T00:45:26;0.60;99.90
69747;DHT22;57018;50.278;19.134;2024-01-30T00:47:56;0.60;99.90
69747;DHT22;57018;50.278;19.134;2024-01-30T00:50:26;0.50;99.90
69747;DHT22;57018;50.278;19.134;2024-01-30T00:52:56;0.40;99.90
69747;DHT22;57018;50.278;19.134;2024-01-30T00:55:26;0.40;99.90
69747;DHT22;57018;50.278;19.134;2024-01-30T00:57:55;0.30;99.90
69747;DHT22;57018;50.278;19.134;2024-01-30T01:00:25;0.50;99.90
69747;DHT22;57018;50.278;19.134;2024-01-30T01:02:57;0.30;99.90
69747;DHT22;57018;50.278;19.134;2024-01-30T01:05:27;0.40;99.90
69747;DHT22;57018;50.278;19.134;2024-01-30T01:07:59;0.50;99.90
69747;DHT22;57018;50.278;19.134;2024-01-30T01:10:29;0.50;99.90
69747;DHT22;57018;50.278;19.134;2024-01-30T01:12:59;0.40;99.90
69747;DHT22;57018;50.278;19.134;2024-01-30T01:15:28;0.40;99.90
69747;DHT22;57018;50.278;19.134;2024-01-30T01:17:58;0.50;99.90
69747;DHT22;57018;50.278;19.134;2024-01-30T01:20:28;0.40;99.90
69747;DHT22;57018;50.278;19.134;2024-01-30T01:22:58;0.50;99.90
69747;DHT22;57018;50.278;19.134;2024-01-30T01:25:30;0.40;99.90
69747;DHT22;57018;50.278;19.134;2024-01-30T01:28:00;0.40;99.90
69747;DHT22;57018;50.278;19.134;2024-01-30T01:30:30;0.40;99.90
69747;DHT22;57018;50.278;19.134;2024-01-30T01:32:59;0.40;99.90
69747;DHT22;57018;50.278;19.134;2024-01-30T01:35:30;0.30;99.90
69747;DHT22;57018;50.278;19.134;2024-01-30T01:38:03;0.30;99.90
69747;DHT22;57018;50.278;19.134;2024-01-30T01:40:35;0.30;99.90
69747;DHT22;57018;50.278;19.134;2024-01-30T01:43:05;0.40;99.90
69747;DHT22;57018;50.278;19.134;2024-01-30T01:45:38;0.30;99.90
69747;DHT22;57018;50.278;19.134;2024-01-30T01:48:08;0.30;99.90
69747;DHT22;57018;50.278;19.134;2024-01-30T01:50:40;0.20;99.90
69747;DHT22;57018;50.278;19.134;2024-01-30T01:53:11;0.20;99.90
69747;DHT22;57018;50.278;19.134;2024-01-30T01:55:42;0.30;99.90
69747;DHT22;57018;50.278;19.134;2024-01-30T01:58:13;0.20;99.90
69747;DHT22;57018;50.278;19.134;2024-01-30T02:00:43;0.30;99.90
69747;DHT22;57018;50.278;19.134;2024-01-30T02:03:15;0.20;99.90
69747;DHT22;57018;50.278;19.134;2024-01-30T02:05:46;0.20;99.90
69747;DHT22;57018;50.278;19.134;2024-01-30T02:08:16;0.30;99.90
69747;DHT22;57018;50.278;19.134;2024-01-30T02:10:47;0.30;99.90
69747;DHT22;57018;50.278;19.134;2024-01-30T02:13:16;0.20;99.90
69747;DHT22;57018;50.278;19.134;2024-01-30T02:15:50;0.20;99.90
69747;DHT22;57018;50.278;19.134;2024-01-30T02:18:22;0.20;99.90
69747;DHT22;57018;50.278;19.134;2024-01-30T02:20:56;0.20;99.90
69747;DHT22;57018;50.278;19.134;2024-01-30T02:23:27;0.20;99.90
69747;DHT22;57018;50.278;19.134;2024-01-30T02:25:57;0.30;99.90
69747;DHT22;57018;50.278;19.134;2024-01-30T02:28:28;0.30;99.90
69747;DHT22;57018;50.278;19.134;2024-01-30T02:30:57;0.40;99.90
69747;DHT22;57018;50.278;19.134;2024-01-30T02:33:27;0.40;99.90
69747;DHT22;57018;50.278;19.134;2024-01-30T02:35:57;0.30;99.90
69747;DHT22;57018;50.278;19.134;2024-01-30T02:38:27;0.30;99.90
69747;DHT22;57018;50.278;19.134;2024-01-30T02:40:57;0.20;99.90
69747;DHT22;57018;50.278;19.134;2024-01-30T02:43:27;0.10;99.90
69747;DHT22;57018;50.278;19.134;2024-01-30T02:45:55;0.10;99.90
69747;DHT22;57018;50.278;19.134;2024-01-30T02:48:26;0.10;99.90
69747;DHT22;57018;50.278;19.134;2024-01-30T02:50:56;0.10;99.90
69747;DHT22;57018;50.278;19.134;2024-01-30T02:53:26;0.00;99.90
69747;DHT22;57018;50.278;19.134;2024-01-30T02:55:56;0.00;99.90
69747;DHT22;57018;50.278;19.134;2024-01-30T02:58:26;0.00;99.90
69747;DHT22;57018;50.278;19.134;2024-01-30T03:00:56;0.00;99.90
69747;DHT22;57018;50.278;19.134;2024-01-30T03:03:26;0.00;99.90
69747;DHT22;57018;50.278;19.134;2024-01-30T03:05:55;0.00;99.90
69747;DHT22;57018;50.278;19.134;2024-01-30T03:08:25;0.00;99.90
69747;DHT22;57018;50.278;19.134;2024-01-30T03:10:55;-0.10;99.90
69747;DHT22;57018;50.278;19.134;2024-01-30T03:13:27;0.00;99.90
69747;DHT22;57018;50.278;19.134;2024-01-30T03:15:57;0.00;99.90
69747;DHT22;57018;50.278;19.134;2024-01-30T03:18:27;0.00;99.90
69747;DHT22;57018;50.278;19.134;2024-01-30T03:20:55;0.00;99.90
69747;DHT22;57018;50.278;19.134;2024-01-30T03:23:25;-0.10;99.90
69747;DHT22;57018;50.278;19.134;2024-01-30T03:25:55;-0.10;99.90
69747;DHT22;57018;50.278;19.134;2024-01-30T03:28:25;-0.10;99.90
69747;DHT22;57018;50.278;19.134;2024-01-30T03:30:57;-0.20;99.90
69747;DHT22;57018;50.278;19.134;2024-01-30T03:33:27;-0.10;99.90
69747;DHT22;57018;50.278;19.134;2024-01-30T03:35:56;-0.10;99.90
69747;DHT22;57018;50.278;19.134;2024-01-30T03:38:26;-0.20;99.90
69747;DHT22;57018;50.278;19.134;2024-01-30T03:40:56;-0.10;99.90
69747;DHT22;57018;50.278;19.134;2024-01-30T03:43:26;-0.10;99.90
69747;DHT22;57018;50.278;19.134;2024-01-30T03:45:59;-0.10;99.90
69747;DHT22;57018;50.278;19.134;2024-01-30T03:48:29;-0.10;99.90
69747;DHT22;57018;50.278;19.134;2024-01-30T03:50:59;-0.10;99.90
69747;DHT22;57018;50.278;19.134;2024-01-30T03:53:28;-0.10;99.90
69747;DHT22;57018;50.278;19.134;2024-01-30T03:55:57;-0.10;99.90
69747;DHT22;57018;50.278;19.134;2024-01-30T03:58:27;-0.10;99.90
69747;DHT22;57018;50.278;19.134;2024-01-30T04:00:56;-0.20;99.90
69747;DHT22;57018;50.278;19.134;2024-01-30T04:03:26;-0.20;99.90
69747;DHT22;57018;50.278;19.134;2024-01-30T04:05:56;-0.20;99.90
69747;DHT22;57018;50.278;19.134;2024-01-30T04:08:26;-0.20;99.90
69747;DHT22;57018;50.278;19.134;2024-01-30T04:10:56;-0.20;99.90
69747;DHT22;57018;50.278;19.134;2024-01-30T04:13:26;-0.20;99.90
69747;DHT22;57018;50.278;19.134;2024-01-30T04:15:56;-0.10;99.90
69747;DHT22;57018;50.278;19.134;2024-01-30T04:18:26;-0.20;99.90
69747;DHT22;57018;50.278;19.134;2024-01-30T04:20:56;-0.20;99.90
69747;DHT22;57018;50.278;19.134;2024-01-30T04:23:26;-0.20;99.90
69747;DHT22;57018;50.278;19.134;2024-01-30T04:25:56;-0.20;99.90
69747;DHT22;57018;50.278;19.134;2024-01-30T04:28:26;-0.30;99.90
69747;DHT22;57018;50.278;19.134;2024-01-30T04:30:55;-0.30;99.90
69747;DHT22;57018;50.278;19.134;2024-01-30T04:33:25;-0.30;99.90
69747;DHT22;57018;50.278;19.134;2024-01-30T04:35:55;-0.30;99.90
69747;DHT22;57018;50.278;19.134;2024-01-30T04:38:27;-0.30;99.90
69747;DHT22;57018;50.278;19.134;2024-01-30T04:40:57;-0.40;99.90
69747;DHT22;57018;50.278;19.134;2024-01-30T04:43:27;-0.40;99.90
69747;DHT22;57018;50.278;19.134;2024-01-30T04:45:55;-0.50;99.90
69747;DHT22;57018;50.278;19.134;2024-01-30T04:48:28;-0.60;99.90
69747;DHT22;57018;50.278;19.134;2024-01-30T04:50:58;-0.50;99.90
69747;DHT22;57018;50.278;19.134;2024-01-30T04:53:32;-0.50;99.90
69747;DHT22;57018;50.278;19.134;2024-01-30T04:56:02;-0.50;99.90
69747;DHT22;57018;50.278;19.134;2024-01-30T04:58:32;-0.50;99.90
69747;DHT22;57018;50.278;19.134;2024-01-30T05:01:02;-0.50;99.90
69747;DHT22;57018;50.278;19.134;2024-01-30T05:03:34;-0.40;99.90
69747;DHT22;57018;50.278;19.134;2024-01-30T05:06:05;-0.60;99.90
69747;DHT22;57018;50.278;19.134;2024-01-30T05:08:35;-0.50;99.90
69747;DHT22;57018;50.278;19.134;2024-01-30T05:11:06;-0.50;99.90
69747;DHT22;57018;50.278;19.134;2024-01-30T05:13:36;-0.50;99.90
69747;DHT22;57018;50.278;19.134;2024-01-30T05:16:07;-0.50;99.90
69747;DHT22;57018;50.278;19.134;2024-01-30T05:18:37;-0.40;99.90
69747;DHT22;57018;50.278;19.134;2024-01-30T05:21:07;-0.50;99.90
69747;DHT22;57018;50.278;19.134;2024-01-30T05:23:37;-0.50;99.90
69747;DHT22;57018;50.278;19.134;2024-01-30T05:26:07;-0.50;99.90
69747;DHT22;57018;50.278;19.134;2024-01-30T05:28:37;-0.50;99.90
69747;DHT22;57018;50.278;19.134;2024-01-30T05:31:07;-0.50;99.90
69747;DHT22;57018;50.278;19.134;2024-01-30T05:33:37;-0.60;99.90
69747;DHT22;57018;50.278;19.134;2024-01-30T05:36:11;-0.40;99.90
69747;DHT22;57018;50.278;19.134;2024-01-30T05:38:41;-0.40;99.90
69747;DHT22;57018;50.278;19.134;2024-01-30T05:41:11;-0.30;99.90
69747;DHT22;57018;50.278;19.134;2024-01-30T05:43:41;-0.40;99.90
69747;DHT22;57018;50.278;19.134;2024-01-30T05:46:10;-0.40;99.90
69747;DHT22;57018;50.278;19.134;2024-01-30T05:48:40;-0.40;99.90
69747;DHT22;57018;50.278;19.134;2024-01-30T05:51:10;-0.40;99.90
69747;DHT22;57018;50.278;19.134;2024-01-30T05:53:40;-0.40;99.90
69747;DHT22;57018;50.278;19.134;2024-01-30T05:56:10;-0.40;99.90
69747;DHT22;57018;50.278;19.134;2024-01-30T05:58:42;-0.40;99.90
69747;DHT22;57018;50.278;19.134;2024-01-30T06:01:12;-0.40;99.90
69747;DHT22;57018;50.278;19.134;2024-01-30T06:03:43;-0.50;99.90
69747;DHT22;57018;50.278;19.134;2024-01-30T06:06:13;-0.40;99.90
69747;DHT22;57018;50.278;19.134;2024-01-30T06:08:45;-0.40;99.90
69747;DHT22;57018;50.278;19.134;2024-01-30T06:11:15;-0.50;99.90
69747;DHT22;57018;50.278;19.134;2024-01-30T06:13:45;-0.40;99.90
69747;DHT22;57018;50.278;19.134;2024-01-30T06:16:15;-0.50;99.90
69747;DHT22;57018;50.278;19.134;2024-01-30T06:18:45;-0.50;99.90
69747;DHT22;57018;50.278;19.134;2024-01-30T06:21:16;-0.50;99.90
69747;DHT22;57018;50.278;19.134;2024-01-30T06:23:46;-0.50;99.90
69747;DHT22;57018;50.278;19.134;2024-01-30T06:26:16;-0.40;99.90
69747;DHT22;57018;50.278;19.134;2024-01-30T06:28:45;-0.40;99.90
69747;DHT22;57018;50.278;19.134;2024-01-30T06:31:15;-0.40;99.90
69747;DHT22;57018;50.278;19.134;2024-01-30T06:33:48;-0.50;99.90
69747;DHT22;57018;50.278;19.134;2024-01-30T06:36:17;-0.50;99.90
69747;DHT22;57018;50.278;19.134;2024-01-30T06:38:49;-0.40;99.90
69747;DHT22;57018;50.278;19.134;2024-01-30T06:41:19;-0.50;99.90
69747;DHT22;57018;50.278;19.134;2024-01-30T06:43:49;-0.40;99.90
69747;DHT22;57018;50.278;19.134;2024-01-30T06:46:19;-0.30;99.90
69747;DHT22;57018;50.278;19.134;2024-01-30T06:48:51;-0.30;99.90
69747;DHT22;57018;50.278;19.134;2024-01-30T06:51:22;-0.20;99.90
69747;DHT22;57018;50.278;19.134;2024-01-30T06:53:52;-0.10;99.90
69747;DHT22;57018;50.278;19.134;2024-01-30T06:56:22;-0.10;99.90
69747;DHT22;57018;50.278;19.134;2024-01-30T06:58:51;0.00;99.90
69747;DHT22;57018;50.278;19.134;2024-01-30T07:01:22;0.00;99.90
69747;DHT22;57018;50.278;19.134;2024-01-30T07:03:56;0.00;99.90
69747;DHT22;57018;50.278;19.134;2024-01-30T07:06:29;0.10;99.90
69747;DHT22;57018;50.278;19.134;2024-01-30T07:08:59;0.10;99.90
69747;DHT22;57018;50.278;19.134;2024-01-30T07:11:29;0.30;99.90
69747;DHT22;57018;50.278;19.134;2024-01-30T07:13:58;0.90;99.90
69747;DHT22;57018;50.278;19.134;2024-01-30T07:16:28;1.70;99.90
69747;DHT22;57018;50.278;19.134;2024-01-30T07:18:58;2.80;99.90
69747;DHT22;57018;50.278;19.134;2024-01-30T07:21:28;3.40;99.90
69747;DHT22;57018;50.278;19.134;2024-01-30T07:24:00;4.10;99.90
69747;DHT22;57018;50.278;19.134;2024-01-30T07:26:30;4.70;99.90
69747;DHT22;57018;50.278;19.134;2024-01-30T07:29:00;5.10;99.90
69747;DHT22;57018;50.278;19.134;2024-01-30T07:31:30;5.40;99.90
69747;DHT22;57018;50.278;19.134;2024-01-30T07:34:00;5.80;99.90
69747;DHT22;57018;50.278;19.134;2024-01-30T07:36:30;6.10;99.90
69747;DHT22;57018;50.278;19.134;2024-01-30T07:39:00;6.30;99.90
69747;DHT22;57018;50.278;19.134;2024-01-30T07:41:30;6.50;95.10
69747;DHT22;57018;50.278;19.134;2024-01-30T07:44:00;6.60;94.10
69747;DHT22;57018;50.278;19.134;2024-01-30T07:46:30;7.10;87.60
69747;DHT22;57018;50.278;19.134;2024-01-30T07:48:59;7.30;88.00
69747;DHT22;57018;50.278;19.134;2024-01-30T07:51:32;7.60;81.40
69747;DHT22;57018;50.278;19.134;2024-01-30T07:54:02;8.10;79.70
69747;DHT22;57018;50.278;19.134;2024-01-30T07:56:32;8.80;78.00
69747;DHT22;57018;50.278;19.134;2024-01-30T07:59:02;9.70;75.20
69747;DHT22;57018;50.278;19.134;2024-01-30T08:01:32;10.50;68.00
69747;DHT22;57018;50.278;19.134;2024-01-30T08:04:04;11.50;63.30
69747;DHT22;57018;50.278;19.134;2024-01-30T08:06:34;12.30;59.40
69747;DHT22;57018;50.278;19.134;2024-01-30T08:09:04;13.50;55.70
69747;DHT22;57018;50.278;19.134;2024-01-30T08:11:35;14.40;53.50
69747;DHT22;57018;50.278;19.134;2024-01-30T08:14:05;15.20;50.00
69747;DHT22;57018;50.278;19.134;2024-01-30T08:16:35;15.90;47.30
69747;DHT22;57018;50.278;19.134;2024-01-30T08:19:05;16.50;44.80
69747;DHT22;57018;50.278;19.134;2024-01-30T08:21:35;16.70;42.80
69747;DHT22;57018;50.278;19.134;2024-01-30T08:24:07;16.80;42.20
69747;DHT22;57018;50.278;19.134;2024-01-30T08:26:37;17.00;41.40
69747;DHT22;57018;50.278;19.134;2024-01-30T08:29:07;17.10;40.80
69747;DHT22;57018;50.278;19.134;2024-01-30T08:31:37;17.20;40.70
69747;DHT22;57018;50.278;19.134;2024-01-30T08:34:07;17.20;40.30
69747;DHT22;57018;50.278;19.134;2024-01-30T08:36:38;17.40;40.00
69747;DHT22;57018;50.278;19.134;2024-01-30T08:39:08;17.40;40.10
69747;DHT22;57018;50.278;19.134;2024-01-30T08:41:38;17.60;40.10
69747;DHT22;57018;50.278;19.134;2024-01-30T08:44:08;17.60;39.50
69747;DHT22;57018;50.278;19.134;2024-01-30T08:46:39;17.60;39.10
69747;DHT22;57018;50.278;19.134;2024-01-30T08:49:09;17.50;39.10
69747;DHT22;57018;50.278;19.134;2024-01-30T08:51:39;17.50;39.30
69747;DHT22;57018;50.278;19.134;2024-01-30T08:54:09;17.50;39.80
69747;DHT22;57018;50.278;19.134;2024-01-30T08:56:41;17.60;39.10
69747;DHT22;57018;50.278;19.134;2024-01-30T08:59:11;18.10;38.80
69747;DHT22;57018;50.278;19.134;2024-01-30T09:01:43;18.70;37.30
69747;DHT22;57018;50.278;19.134;2024-01-30T09:04:13;19.30;37.40
69747;DHT22;57018;50.278;19.134;2024-01-30T09:06:43;19.80;36.90
69747;DHT22;57018;50.278;19.134;2024-01-30T09:09:16;20.50;35.60
69747;DHT22;57018;50.278;19.134;2024-01-30T09:11:47;21.10;33.50
69747;DHT22;57018;50.278;19.134;2024-01-30T09:14:17;21.80;32.30
69747;DHT22;57018;50.278;19.134;2024-01-30T09:16:48;22.40;30.00
69747;DHT22;57018;50.278;19.134;2024-01-30T09:19:18;22.80;29.90
69747;DHT22;57018;50.278;19.134;2024-01-30T09:21:48;23.30;28.70
69747;DHT22;57018;50.278;19.134;2024-01-30T09:24:20;23.50;28.20
69747;DHT22;57018;50.278;19.134;2024-01-30T09:26:52;23.80;28.10
69747;DHT22;57018;50.278;19.134;2024-01-30T09:29:22;24.50;27.10
69747;DHT22;57018;50.278;19.134;2024-01-30T09:31:52;24.70;26.60
69747;DHT22;57018;50.278;19.134;2024-01-30T09:34:22;25.00;26.00
69747;DHT22;57018;50.278;19.134;2024-01-30T09:36:52;25.20;26.30
69747;DHT22;57018;50.278;19.134;2024-01-30T09:39:21;25.60;25.70
69747;DHT22;57018;50.278;19.134;2024-01-30T09:41:59;25.80;24.40
69747;DHT22;57018;50.278;19.134;2024-01-30T09:44:32;25.80;25.30
69747;DHT22;57018;50.278;19.134;2024-01-30T09:47:05;26.00;25.30
69747;DHT22;57018;50.278;19.134;2024-01-30T09:49:35;26.00;24.60
69747;DHT22;57018;50.278;19.134;2024-01-30T09:52:07;26.20;24.40
69747;DHT22;57018;50.278;19.134;2024-01-30T09:54:38;26.40;24.30
69747;DHT22;57018;50.278;19.134;2024-01-30T09:57:08;26.50;23.80
69747;DHT22;57018;50.278;19.134;2024-01-30T09:59:38;26.60;23.70
69747;DHT22;57018;50.278;19.134;2024-01-30T10:02:08;26.80;23.60
69747;DHT22;57018;50.278;19.134;2024-01-30T10:04:38;27.00;22.80
69747;DHT22;57018;50.278;19.134;2024-01-30T10:07:08;26.90;22.90
69747;DHT22;57018;50.278;19.134;2024-01-30T10:09:39;26.70;22.70
69747;DHT22;57018;50.278;19.134;2024-01-30T10:12:11;26.80;22.90
69747;DHT22;57018;50.278;19.134;2024-01-30T10:14:41;26.60;22.80
69747;DHT22;57018;50.278;19.134;2024-01-30T10:17:13;26.80;22.60
69747;DHT22;57018;50.278;19.134;2024-01-30T10:19:43;26.80;22.10
69747;DHT22;57018;50.278;19.134;2024-01-30T10:22:13;26.90;22.80
69747;DHT22;57018;50.278;19.134;2024-01-30T10:24:47;27.00;22.40
69747;DHT22;57018;50.278;19.134;2024-01-30T10:27:18;26.70;20.80
69747;DHT22;57018;50.278;19.134;2024-01-30T10:29:53;26.30;20.30
69747;DHT22;57018;50.278;19.134;2024-01-30T10:32:21;25.60;20.20
69747;DHT22;57018;50.278;19.134;2024-01-30T10:34:51;24.70;20.30
69747;DHT22;57018;50.278;19.134;2024-01-30T10:37:23;23.90;20.80
69747;DHT22;57018;50.278;19.134;2024-01-30T10:39:57;22.90;21.60
69747;DHT22;57018;50.278;19.134;2024-01-30T10:42:32;21.70;22.50
69747;DHT22;57018;50.278;19.134;2024-01-30T10:45:08;20.30;24.50
69747;DHT22;57018;50.278;19.134;2024-01-30T10:47:42;19.10;26.50
69747;DHT22;57018;50.278;19.134;2024-01-30T10:50:14;17.80;29.20
69747;DHT22;57018;50.278;19.134;2024-01-30T10:52:44;17.00;30.50
69747;DHT22;57018;50.278;19.134;2024-01-30T10:55:15;16.30;31.60
69747;DHT22;57018;50.278;19.134;2024-01-30T10:57:46;15.60;32.00
69747;DHT22;57018;50.278;19.134;2024-01-30T11:00:17;15.10;34.30
69747;DHT22;57018;50.278;19.134;2024-01-30T11:02:51;14.60;35.30
69747;DHT22;57018;50.278;19.134;2024-01-30T11:05:27;14.20;37.00
69747;DHT22;57018;50.278;19.134;2024-01-30T11:07:57;13.90;37.80
69747;DHT22;57018;50.278;19.134;2024-01-30T11:10:27;13.60;38.70
69747;DHT22;57018;50.278;19.134;2024-01-30T11:12:57;13.20;38.70
69747;DHT22;57018;50.278;19.134;2024-01-30T11:15:27;13.00;39.20
69747;DHT22;57018;50.278;19.134;2024-01-30T11:18:00;12.80;39.40
69747;DHT22;57018;50.278;19.134;2024-01-30T11:20:33;12.50;41.10
69747;DHT22;57018;50.278;19.134;2024-01-30T11:23:05;12.40;41.10
69747;DHT22;57018;50.278;19.134;2024-01-30T11:25:35;12.20;41.80
69747;DHT22;57018;50.278;19.134;2024-01-30T11:28:06;12.10;41.40
69747;DHT22;57018;50.278;19.134;2024-01-30T11:30:42;11.90;42.10
69747;DHT22;57018;50.278;19.134;2024-01-30T11:33:14;11.80;42.60
69747;DHT22;57018;50.278;19.134;2024-01-30T11:35:45;11.60;42.80
69747;DHT22;57018;50.278;19.134;2024-01-30T11:38:16;11.50;43.30
69747;DHT22;57018;50.278;19.134;2024-01-30T11:40:47;11.40;43.50
69747;DHT22;57018;50.278;19.134;2024-01-30T11:43:18;11.40;44.10
69747;DHT22;57018;50.278;19.134;2024-01-30T11:45:48;11.30;44.50
69747;DHT22;57018;50.278;19.134;2024-01-30T11:48:19;11.20;44.70
69747;DHT22;57018;50.278;19.134;2024-01-30T11:50:50;11.10;45.20
69747;DHT22;57018;50.278;19.134;2024-01-30T11:53:20;11.00;44.80
69747;DHT22;57018;50.278;19.134;2024-01-30T11:55:55;11.00;45.80
69747;DHT22;57018;50.278;19.134;2024-01-30T11:58:27;11.00;45.70
69747;DHT22;57018;50.278;19.134;2024-01-30T12:00:58;10.80;45.70
69747;DHT22;57018;50.278;19.134;2024-01-30T12:03:28;10.80;45.70
69747;DHT22;57018;50.278;19.134;2024-01-30T12:05:59;10.80;46.20
69747;DHT22;57018;50.278;19.134;2024-01-30T12:08:29;10.60;45.70
69747;DHT22;57018;50.278;19.134;2024-01-30T12:10:59;10.50;45.80
69747;DHT22;57018;50.278;19.134;2024-01-30T12:13:33;10.40;46.80
69747;DHT22;57018;50.278;19.134;2024-01-30T12:16:04;10.30;47.00
69747;DHT22;57018;50.278;19.134;2024-01-30T12:18:34;10.10;47.60
69747;DHT22;57018;50.278;19.134;2024-01-30T12:21:04;10.20;47.80
69747;DHT22;57018;50.278;19.134;2024-01-30T12:23:36;10.00;47.80
69747;DHT22;57018;50.278;19.134;2024-01-30T12:26:06;9.90;47.90
69747;DHT22;57018;50.278;19.134;2024-01-30T12:28:36;9.80;48.00
69747;DHT22;57018;50.278;19.134;2024-01-30T12:31:06;9.70;48.60
69747;DHT22;57018;50.278;19.134;2024-01-30T12:33:37;9.90;49.30
69747;DHT22;57018;50.278;19.134;2024-01-30T12:36:08;9.90;49.80
69747;DHT22;57018;50.278;19.134;2024-01-30T12:38:38;10.00;50.30
69747;DHT22;57018;50.278;19.134;2024-01-30T12:41:10;9.90;50.50
69747;DHT22;57018;50.278;19.134;2024-01-30T12:43:40;9.80;50.80
69747;DHT22;57018;50.278;19.134;2024-01-30T12:46:12;9.70;50.90
69747;DHT22;57018;50.278;19.134;2024-01-30T12:48:42;9.70;51.40
69747;DHT22;57018;50.278;19.134;2024-01-30T12:51:12;9.80;51.30
69747;DHT22;57018;50.278;19.134;2024-01-30T12:53:42;9.60;51.20
69747;DHT22;57018;50.278;19.134;2024-01-30T12:56:10;9.80;51.40
69747;DHT22;57018;50.278;19.134;2024-01-30T12:58:40;9.50;51.70
69747;DHT22;57018;50.278;19.134;2024-01-30T13:01:11;9.50;52.00
69747;DHT22;57018;50.278;19.134;2024-01-30T13:03:41;9.60;52.30
69747;DHT22;57018;50.278;19.134;2024-01-30T13:06:13;9.40;53.10
69747;DHT22;57018;50.278;19.134;2024-01-30T13:08:43;9.40;53.40
69747;DHT22;57018;50.278;19.134;2024-01-30T13:11:13;9.50;53.10
69747;DHT22;57018;50.278;19.134;2024-01-30T13:13:43;9.40;53.30
69747;DHT22;57018;50.278;19.134;2024-01-30T13:16:13;9.40;53.70
69747;DHT22;57018;50.278;19.134;2024-01-30T13:18:44;9.40;53.50
69747;DHT22;57018;50.278;19.134;2024-01-30T13:21:13;9.30;53.70
69747;DHT22;57018;50.278;19.134;2024-01-30T13:23:43;9.30;54.20
69747;DHT22;57018;50.278;19.134;2024-01-30T13:26:13;9.20;54.60
69747;DHT22;57018;50.278;19.134;2024-01-30T13:28:43;9.10;54.90
69747;DHT22;57018;50.278;19.134;2024-01-30T13:31:13;9.30;55.10
69747;DHT22;57018;50.278;19.134;2024-01-30T13:33:43;9.00;55.10
69747;DHT22;57018;50.278;19.134;2024-01-30T13:36:13;9.00;55.60
69747;DHT22;57018;50.278;19.134;2024-01-30T13:38:43;9.30;55.80
69747;DHT22;57018;50.278;19.134;2024-01-30T13:41:13;9.30;56.30
69747;DHT22;57018;50.278;19.134;2024-01-30T13:43:45;9.30;56.10
69747;DHT22;57018;50.278;19.134;2024-01-30T13:46:15;9.10;56.00
69747;DHT22;57018;50.278;19.134;2024-01-30T13:48:45;9.00;56.20
69747;DHT22;57018;50.278;19.134;2024-01-30T13:51:17;9.20;56.30
69747;DHT22;57018;50.278;19.134;2024-01-30T13:53:47;9.30;56.50
69747;DHT22;57018;50.278;19.134;2024-01-30T13:56:18;9.40;56.50
69747;DHT22;57018;50.278;19.134;2024-01-30T13:58:49;9.30;56.80
69747;DHT22;57018;50.278;19.134;2024-01-30T14:01:19;9.20;56.70
69747;DHT22;57018;50.278;19.134;2024-01-30T14:03:49;8.90;57.10
69747;DHT22;57018;50.278;19.134;2024-01-30T14:06:19;9.30;57.00
69747;DHT22;57018;50.278;19.134;2024-01-30T14:08:51;9.10;57.30
69747;DHT22;57018;50.278;19.134;2024-01-30T14:11:22;9.20;57.10
69747;DHT22;57018;50.278;19.134;2024-01-30T14:13:54;9.10;57.50
69747;DHT22;57018;50.278;19.134;2024-01-30T14:16:24;9.10;57.90
69747;DHT22;57018;50.278;19.134;2024-01-30T14:18:57;9.10;58.00
69747;DHT22;57018;50.278;19.134;2024-01-30T14:21:27;9.00;58.10
69747;DHT22;57018;50.278;19.134;2024-01-30T14:23:56;9.10;58.50
69747;DHT22;57018;50.278;19.134;2024-01-30T14:26:26;8.90;58.90
69747;DHT22;57018;50.278;19.134;2024-01-30T14:28:56;9.00;58.80
69747;DHT22;57018;50.278;19.134;2024-01-30T14:31:26;9.00;58.20
69747;DHT22;57018;50.278;19.134;2024-01-30T14:33:56;8.90;58.40
69747;DHT22;57018;50.278;19.134;2024-01-30T14:36:26;8.80;58.20
69747;DHT22;57018;50.278;19.134;2024-01-30T14:38:57;8.80;58.80
69747;DHT22;57018;50.278;19.134;2024-01-30T14:41:27;8.90;59.10
69747;DHT22;57018;50.278;19.134;2024-01-30T14:43:57;8.80;59.60
69747;DHT22;57018;50.278;19.134;2024-01-30T14:46:27;8.70;59.80
69747;DHT22;57018;50.278;19.134;2024-01-30T14:48:57;8.70;60.30
69747;DHT22;57018;50.278;19.134;2024-01-30T14:51:27;8.70;60.80
69747;DHT22;57018;50.278;19.134;2024-01-30T14:53:58;8.60;61.00
69747;DHT22;57018;50.278;19.134;2024-01-30T14:56:28;8.80;61.40
69747;DHT22;57018;50.278;19.134;2024-01-30T14:58:59;8.50;62.20
69747;DHT22;57018;50.278;19.134;2024-01-30T15:01:29;8.60;62.50
69747;DHT22;57018;50.278;19.134;2024-01-30T15:03:59;8.40;63.10
69747;DHT22;57018;50.278;19.134;2024-01-30T15:06:29;8.40;63.90
69747;DHT22;57018;50.278;19.134;2024-01-30T15:08:59;8.30;64.20
69747;DHT22;57018;50.278;19.134;2024-01-30T15:11:29;8.30;64.70
69747;DHT22;57018;50.278;19.134;2024-01-30T15:14:01;8.40;66.10
69747;DHT22;57018;50.278;19.134;2024-01-30T15:16:31;8.10;66.80
69747;DHT22;57018;50.278;19.134;2024-01-30T15:19:01;8.00;67.70
69747;DHT22;57018;50.278;19.134;2024-01-30T15:21:33;8.00;68.50
69747;DHT22;57018;50.278;19.134;2024-01-30T15:24:04;7.90;69.30
69747;DHT22;57018;50.278;19.134;2024-01-30T15:26:34;7.70;70.50
69747;DHT22;57018;50.278;19.134;2024-01-30T15:29:04;7.80;71.20
69747;DHT22;57018;50.278;19.134;2024-01-30T15:31:33;7.70;71.80
69747;DHT22;57018;50.278;19.134;2024-01-30T15:34:03;7.50;72.60
69747;DHT22;57018;50.278;19.134;2024-01-30T15:36:33;7.70;73.60
69747;DHT22;57018;50.278;19.134;2024-01-30T15:39:03;7.60;75.80
69747;DHT22;57018;50.278;19.134;2024-01-30T15:41:33;7.50;75.70